Time;durP1;ratioP1;P1;durP2;ratioP2;P2;SDS_P1;SDS_P2;PMS_P1;PMS_P2;Temp;Humidity;BMP_temperature;BMP_pressure;BME280_temperature;BME280_humidity;BME280_pressure;Samples;Min_cycle;Max_cycle;Signal;HPM_P1;HPM_P2
2023/07/09 00:01:27;;;;;;;6.60;5.60;;;;;;;16.97;59.34;100927.45;103566;281;39680;-69
2023/07/09 00:04:01;;;;;;;6.20;5.50;;;;;;;16.92;59.29;100927.57;103557;281;38401;-72
2023/07/09 00:06:35;;;;;;;6.40;5.40;;;;;;;16.87;59.64;100927.46;103532;281;38290;-71
2023/07/09 00:09:14;;;;;;;6.90;5.60;;;;;;;16.83;59.90;100933.32;103527;281;40403;-70
2023/07/09 00:11:47;;;;;;;;;;;;;;;16.79;60.28;100939.89;103623;280;38916;-71
2023/07/09 00:14:21;;;;;;;5.50;4.80;;;;;;;16.71;60.54;100940.30;103587;281;38287;-71
2023/07/09 00:16:59;;;;;;;5.70;5.20;;;;;;;16.70;60.79;100940.19;103581;281;38350;-71
2023/07/09 00:19:32;;;;;;;7.90;5.80;;;;;;;16.68;60.96;100941.66;103560;281;38327;-70
2023/07/09 00:22:11;;;;;;;6.10;5.00;;;;;;;16.68;60.94;100939.06;103590;281;39531;-70
2023/07/09 00:24:45;;;;;;;6.00;5.40;;;;;;;16.65;61.01;100937.27;103567;280;38508;-71
2023/07/09 00:27:19;;;;;;;6.40;5.10;;;;;;;16.64;61.13;100936.08;103548;281;38791;-71
2023/07/09 00:29:54;;;;;;;6.60;5.70;;;;;;;16.63;61.22;100934.74;103581;281;38480;-72
2023/07/09 00:32:28;;;;;;;6.40;5.80;;;;;;;16.60;61.23;100938.95;103520;281;39976;-74
2023/07/09 00:35:04;;;;;;;6.10;5.50;;;;;;;16.56;61.30;100936.89;103587;281;38510;-73
2023/07/09 00:37:39;;;;;;;5.90;5.20;;;;;;;16.53;61.31;100936.86;103491;281;38677;-73
2023/07/09 00:40:22;;;;;;;7.70;5.50;;;;;;;16.50;61.56;100941.58;103499;281;175012;-73
2023/07/09 00:43:00;;;;;;;5.50;4.70;;;;;;;16.48;61.74;100943.63;103569;281;38552;-71
2023/07/09 00:45:36;;;;;;;6.60;4.90;;;;;;;16.46;61.85;100947.26;103625;281;38386;-69
2023/07/09 00:48:14;;;;;;;6.40;4.80;;;;;;;16.43;62.07;100944.96;103561;281;39217;-70
2023/07/09 00:50:51;;;;;;;5.60;5.10;;;;;;;16.39;62.14;100944.98;103669;281;39537;-72
2023/07/09 00:53:26;;;;;;;6.40;5.10;;;;;;;16.38;62.18;100939.79;103574;281;40250;-72
2023/07/09 00:56:03;;;;;;;7.00;5.30;;;;;;;16.35;62.47;100942.21;103635;281;38776;-71
2023/07/09 00:58:42;;;;;;;6.60;5.20;;;;;;;16.33;62.46;100936.37;103570;281;38416;-70
2023/07/09 01:01:17;;;;;;;5.60;4.90;;;;;;;16.33;62.54;100937.95;103622;281;38232;-72
2023/07/09 01:03:59;;;;;;;7.20;4.90;;;;;;;16.29;62.43;100939.70;103626;281;38641;-73
2023/07/09 01:06:35;;;;;;;6.70;4.60;;;;;;;16.27;62.64;100936.81;103505;281;39366;-74
2023/07/09 01:09:10;;;;;;;5.30;4.80;;;;;;;16.28;62.80;100937.15;103526;281;38491;-73
2023/07/09 01:11:44;;;;;;;5.70;4.80;;;;;;;16.27;63.05;100938.08;103516;281;38787;-73
2023/07/09 01:14:21;;;;;;;5.40;4.70;;;;;;;16.24;62.93;100942.45;103488;281;39668;-71
2023/07/09 01:16:58;;;;;;;5.80;5.00;;;;;;;16.20;63.01;100939.16;103526;281;38270;-70
2023/07/09 01:19:43;;;;;;;5.90;5.00;;;;;;;16.15;63.12;100943.25;103534;281;38273;-70
2023/07/09 01:22:19;;;;;;;8.10;5.30;;;;;;;16.11;63.24;100944.02;103505;281;38297;-71
2023/07/09 01:25:03;;;;;;;5.40;4.80;;;;;;;16.05;63.47;100943.46;103603;281;38246;-70
2023/07/09 01:27:39;;;;;;;5.40;4.80;;;;;;;15.98;63.57;100942.39;103494;281;38607;-71
2023/07/09 01:30:22;;;;;;;5.80;5.10;;;;;;;15.94;63.50;100945.77;103525;281;38393;-72
2023/07/09 01:32:58;;;;;;;6.00;5.40;;;;;;;15.89;63.85;100942.68;103497;281;39692;-72
2023/07/09 01:35:34;;;;;;;5.70;5.20;;;;;;;15.85;63.96;100945.37;103560;281;39464;-68
2023/07/09 01:38:08;;;;;;;6.00;5.10;;;;;;;15.80;64.16;100948.05;103496;281;39150;-71
2023/07/09 01:40:42;;;;;;;9.40;5.60;;;;;;;15.74;64.37;100947.29;103536;281;38468;-72
2023/07/09 01:43:16;;;;;;;5.60;4.90;;;;;;;15.67;64.52;100944.67;103522;281;39829;-71
2023/07/09 01:45:51;;;;;;;7.70;5.00;;;;;;;15.59;64.53;100946.08;103549;281;38738;-69
2023/07/09 01:48:25;;;;;;;6.30;5.10;;;;;;;15.55;64.90;100946.98;103520;281;39091;-69
2023/07/09 01:50:59;;;;;;;8.40;5.50;;;;;;;15.54;65.06;100948.27;103561;281;38222;-74
2023/07/09 01:53:33;;;;;;;5.40;4.90;;;;;;;15.51;65.17;100950.54;103512;281;39146;-73
2023/07/09 01:56:08;;;;;;;7.00;5.60;;;;;;;15.46;65.42;100950.60;103536;281;38238;-73
2023/07/09 01:58:44;;;;;;;8.00;5.60;;;;;;;15.43;65.41;100953.91;103536;281;38693;-73
2023/07/09 02:01:19;;;;;;;6.30;4.80;;;;;;;15.41;65.64;100950.52;103547;281;38394;-71
2023/07/09 02:03:53;;;;;;;6.20;5.40;;;;;;;15.38;65.90;100953.43;103526;281;38273;-71
2023/07/09 02:06:31;;;;;;;5.20;4.80;;;;;;;15.35;65.89;100956.21;103384;281;189208;-71
2023/07/09 02:09:06;;;;;;;5.80;5.10;;;;;;;15.34;66.06;100961.54;103530;280;39503;-70
2023/07/09 02:11:40;;;;;;;7.00;5.10;;;;;;;15.32;66.22;100957.41;103568;281;38052;-71
2023/07/09 02:14:14;;;;;;;5.40;4.90;;;;;;;15.29;66.29;100954.26;103575;281;40141;-69
2023/07/09 02:16:49;;;;;;;11.00;5.70;;;;;;;15.25;66.53;100953.38;103561;281;38494;-70
2023/07/09 02:19:23;;;;;;;5.80;5.20;;;;;;;15.23;66.44;100951.36;103447;281;177360;-73
2023/07/09 02:21:57;;;;;;;6.40;5.50;;;;;;;15.21;66.56;100950.95;103484;281;38363;-72
2023/07/09 02:24:31;;;;;;;5.20;4.70;;;;;;;15.19;66.75;100954.86;103542;281;38251;-74
2023/07/09 02:27:07;;;;;;;5.60;5.10;;;;;;;15.20;66.85;100956.05;103563;281;38517;-73
2023/07/09 02:29:41;;;;;;;6.50;5.00;;;;;;;15.20;66.86;100958.17;103580;281;38425;-73
2023/07/09 02:32:18;;;;;;;6.40;4.80;;;;;;;15.20;66.91;100958.16;103577;281;38780;-73
2023/07/09 02:34:52;;;;;;;6.20;4.60;;;;;;;15.21;66.88;100957.64;103601;281;39442;-72
2023/07/09 02:37:28;;;;;;;5.30;4.80;;;;;;;15.22;66.92;100958.80;103574;281;38295;-72
2023/07/09 02:40:02;;;;;;;5.20;4.70;;;;;;;15.21;66.93;100961.64;103519;281;38831;-72
2023/07/09 02:42:36;;;;;;;5.40;4.90;;;;;;;15.23;66.85;100956.45;103546;282;38465;-73
2023/07/09 02:45:12;;;;;;;6.30;4.80;;;;;;;15.24;67.00;100959.91;103467;281;172213;-74
2023/07/09 02:47:47;;;;;;;6.80;4.50;;;;;;;15.26;67.00;100961.77;103625;281;39667;-74
2023/07/09 02:50:21;;;;;;;5.30;4.20;;;;;;;15.28;66.96;100961.16;103598;281;38298;-72
2023/07/09 02:52:56;;;;;;;4.60;4.20;;;;;;;15.29;66.93;100961.83;103592;281;38700;-71
2023/07/09 02:55:30;;;;;;;6.00;4.50;;;;;;;15.34;66.99;100970.52;102996;269;898350;-70
2023/07/09 02:58:05;;;;;;;4.50;4.10;;;;;;;15.40;67.07;100964.79;103643;281;39203;-72
2023/07/09 03:00:39;;;;;;;5.40;4.70;;;;;;;15.45;66.86;100967.16;103571;281;38435;-69
2023/07/09 03:03:13;;;;;;;5.90;4.50;;;;;;;15.51;66.91;100967.06;103573;281;38489;-72
2023/07/09 03:05:48;;;;;;;5.40;4.50;;;;;;;15.53;66.84;100970.16;103605;281;38485;-71
2023/07/09 03:08:22;;;;;;;5.90;4.30;;;;;;;15.57;66.72;100975.03;103576;281;38260;-69
2023/07/09 03:10:57;;;;;;;5.70;4.40;;;;;;;15.63;66.76;100973.35;103590;281;38331;-74
2023/07/09 03:13:31;;;;;;;7.60;5.10;;;;;;;15.69;66.69;100972.55;103598;281;38234;-73
2023/07/09 03:16:05;;;;;;;5.40;4.20;;;;;;;15.74;66.61;100971.59;103643;281;39442;-72
2023/07/09 03:18:40;;;;;;;6.30;4.50;;;;;;;15.78;66.33;100970.85;103586;281;39451;-74
2023/07/09 03:21:14;;;;;;;4.80;4.30;;;;;;;15.83;66.35;100975.55;103592;281;38239;-73
2023/07/09 03:23:49;;;;;;;5.10;3.90;;;;;;;15.87;66.33;100974.77;103639;281;39479;-72
2023/07/09 03:26:25;;;;;;;4.30;3.80;;;;;;;15.92;66.17;100979.80;103591;281;38845;-70
2023/07/09 03:28:59;;;;;;;7.50;4.40;;;;;;;15.98;66.18;100982.13;103588;281;38298;-71
2023/07/09 03:31:35;;;;;;;5.50;4.30;;;;;;;16.05;66.17;100983.05;103554;281;39664;-69
2023/07/09 03:34:09;;;;;;;5.00;4.50;;;;;;;16.13;66.20;100981.92;103624;281;39454;-72
2023/07/09 03:36:43;;;;;;;5.50;4.20;;;;;;;16.20;66.12;100988.23;103612;281;39486;-73
2023/07/09 03:39:18;;;;;;;5.30;4.70;;;;;;;16.29;66.12;100988.11;103573;269;38458;-73
2023/07/09 03:41:52;;;;;;;5.60;4.20;;;;;;;16.54;65.81;100987.54;103564;281;39967;-74
2023/07/09 03:44:27;;;;;;;5.60;4.50;;;;;;;17.28;66.24;100988.44;103552;280;38608;-72
2023/07/09 03:47:02;;;;;;;4.70;4.20;;;;;;;18.28;65.05;100990.92;103523;281;40478;-69
2023/07/09 03:49:41;;;;;;;4.90;3.90;;;;;;;19.29;63.04;100987.34;103572;280;38256;-69
2023/07/09 03:52:16;;;;;;;4.00;3.30;;;;;;;20.22;60.65;100985.95;103608;281;38582;-69
2023/07/09 03:54:51;;;;;;;3.70;3.20;;;;;;;21.07;58.02;100985.45;103619;281;38614;-72
2023/07/09 03:57:26;;;;;;;4.00;3.10;;;;;;;21.90;56.75;100986.14;103626;281;38276;-73
2023/07/09 04:00:00;;;;;;;4.60;3.50;;;;;;;22.73;53.69;100984.12;103637;281;39399;-72
2023/07/09 04:02:34;;;;;;;3.30;3.00;;;;;;;23.52;51.08;100982.55;103577;281;40037;-71
2023/07/09 04:05:10;;;;;;;3.40;3.00;;;;;;;24.27;48.91;100981.06;103590;281;39642;-74
2023/07/09 04:07:44;;;;;;;3.40;3.00;;;;;;;24.88;46.97;100980.23;103547;281;38255;-73
2023/07/09 04:10:18;;;;;;;4.40;3.10;;;;;;;25.37;44.37;100980.70;103588;281;39390;-71
2023/07/09 04:12:54;;;;;;;6.20;2.80;;;;;;;25.87;43.55;100982.15;103546;281;38478;-69
2023/07/09 04:15:29;;;;;;;2.90;2.60;;;;;;;26.49;41.98;100982.48;103608;281;38221;-73
2023/07/09 04:18:03;;;;;;;4.40;2.80;;;;;;;26.92;40.73;100983.67;103575;281;39547;-73
2023/07/09 04:20:37;;;;;;;3.90;2.70;;;;;;;27.48;39.75;100982.27;103609;281;39436;-72
2023/07/09 04:23:13;;;;;;;4.10;2.90;;;;;;;27.94;37.86;100985.39;103493;281;38433;-73
2023/07/09 04:25:47;;;;;;;3.00;2.10;;;;;;;28.05;36.71;100987.98;103615;281;38376;-73
2023/07/09 04:28:22;;;;;;;3.40;2.20;;;;;;;27.61;36.34;100987.60;103573;281;38221;-73
2023/07/09 04:30:56;;;;;;;3.70;2.50;;;;;;;26.89;36.32;100995.02;103621;281;39097;-71
2023/07/09 04:33:30;;;;;;;2.60;2.20;;;;;;;26.09;37.16;100993.75;103611;281;38295;-71
2023/07/09 04:36:06;;;;;;;3.20;2.30;;;;;;;25.42;38.39;100997.95;103571;281;39411;-70
2023/07/09 04:38:41;;;;;;;3.30;2.30;;;;;;;24.91;38.92;101002.77;103518;281;38235;-71
2023/07/09 04:41:16;;;;;;;3.50;2.50;;;;;;;24.39;39.96;101003.45;103532;281;39399;-71
2023/07/09 04:43:52;;;;;;;2.60;2.20;;;;;;;24.01;40.86;101004.84;103584;281;38946;-71
2023/07/09 04:46:26;;;;;;;2.80;2.30;;;;;;;23.69;41.37;101001.98;103533;281;38263;-72
2023/07/09 04:49:00;;;;;;;5.20;2.60;;;;;;;23.46;42.20;101006.20;103580;281;39450;-71
2023/07/09 04:51:36;;;;;;;4.50;2.20;;;;;;;23.32;42.53;101012.88;103507;281;38394;-71
2023/07/09 04:54:10;;;;;;;4.30;2.10;;;;;;;23.20;42.79;101015.61;103564;281;38713;-73
2023/07/09 04:56:45;;;;;;;3.50;2.20;;;;;;;23.21;43.12;101016.23;103619;281;39078;-73
2023/07/09 04:59:19;;;;;;;2.50;2.30;;;;;;;23.21;43.27;101016.64;103596;281;39395;-73
2023/07/09 05:01:54;;;;;;;2.90;2.20;;;;;;;23.10;43.41;101014.64;103608;281;38283;-74
2023/07/09 05:04:28;;;;;;;3.20;2.40;;;;;;;23.43;44.14;101009.81;103675;281;38465;-72
2023/07/09 05:07:05;;;;;;;3.40;2.20;;;;;;;24.44;43.56;101002.59;103649;281;38260;-72
2023/07/09 05:09:40;;;;;;;2.30;2.10;;;;;;;25.64;41.80;101002.86;103581;281;38288;-73
2023/07/09 05:12:20;;;;;;;2.80;1.60;;;;;;;26.80;40.31;101007.04;103554;281;38426;-73
2023/07/09 05:14:56;;;;;;;3.90;1.90;;;;;;;27.85;37.60;100999.91;103576;281;38289;-73
2023/07/09 05:17:30;;;;;;;3.50;2.00;;;;;;;28.65;36.52;101000.45;103200;281;499603;-73
2023/07/09 05:20:06;;;;;;;2.40;1.80;;;;;;;29.37;34.95;101002.77;103581;281;38263;-71
2023/07/09 05:22:40;;;;;;;3.00;1.80;;;;;;;29.93;33.68;101008.96;103571;281;39421;-71
2023/07/09 05:25:16;;;;;;;3.60;2.00;;;;;;;30.49;32.47;101017.05;103587;281;38230;-71
2023/07/09 05:27:51;;;;;;;3.00;1.70;;;;;;;31.00;31.80;101016.00;103537;281;38225;-71
2023/07/09 05:30:27;;;;;;;2.20;1.70;;;;;;;31.38;30.10;101022.33;102855;279;882338;-70
2023/07/09 05:33:01;;;;;;;2.90;1.80;;;;;;;31.58;30.10;101026.11;103623;281;39418;-69
2023/07/09 05:35:35;;;;;;;2.90;1.80;;;;;;;31.83;29.14;101022.27;103621;281;38229;-73
2023/07/09 05:38:10;;;;;;;3.30;2.20;;;;;;;32.10;28.62;101017.45;103601;281;39426;-73
2023/07/09 05:40:47;;;;;;;3.20;1.90;;;;;;;32.29;27.55;101016.42;103622;281;39517;-69
2023/07/09 05:43:21;;;;;;;3.50;1.70;;;;;;;32.28;27.03;101022.48;103527;281;40058;-69
2023/07/09 05:45:56;;;;;;;4.10;1.70;;;;;;;32.42;27.02;101018.23;103431;281;171314;-71
2023/07/09 05:48:30;;;;;;;2.10;1.80;;;;;;;32.72;26.59;101022.55;103646;281;38387;-71
2023/07/09 05:51:05;;;;;;;2.10;1.50;;;;;;;32.93;26.52;101019.68;103676;281;38234;-71
2023/07/09 05:53:41;;;;;;;3.90;1.50;;;;;;;33.32;26.18;101012.95;103687;281;39053;-72
2023/07/09 05:56:16;;;;;;;3.60;1.50;;;;;;;33.65;25.82;101016.41;103635;281;39077;-70
2023/07/09 05:58:52;;;;;;;3.90;1.50;;;;;;;33.94;24.67;101022.41;103685;281;38280;-73
2023/07/09 06:01:27;;;;;;;2.00;1.60;;;;;;;33.73;24.36;101026.05;103678;281;38255;-71
2023/07/09 06:04:03;;;;;;;2.70;1.50;;;;;;;33.23;24.67;101027.99;103709;281;40439;-73
2023/07/09 06:06:37;;;;;;;1.80;1.50;;;;;;;33.18;25.13;101025.60;103596;281;39437;-72
2023/07/09 06:09:12;;;;;;;4.00;1.80;;;;;;;33.10;25.40;101028.92;103638;281;38225;-71
2023/07/09 06:11:46;;;;;;;2.00;1.50;;;;;;;33.27;25.25;101027.61;103629;281;38248;-72
2023/07/09 06:14:22;;;;;;;3.50;1.80;;;;;;;33.66;25.53;101029.42;103631;281;38292;-73
2023/07/09 06:16:58;;;;;;;2.60;1.80;;;;;;;34.23;24.90;101025.93;103599;281;38407;-73
2023/07/09 06:19:33;;;;;;;2.10;1.40;;;;;;;34.66;24.09;101021.23;103559;281;38998;-73
2023/07/09 06:22:09;;;;;;;2.30;1.60;;;;;;;34.88;23.93;101021.34;103638;281;38239;-73
2023/07/09 06:24:44;;;;;;;2.30;1.60;;;;;;;35.19;23.50;101026.36;103597;281;38886;-72
2023/07/09 06:27:19;;;;;;;3.30;1.60;;;;;;;35.34;23.36;101025.91;103611;281;38257;-73
2023/07/09 06:29:53;;;;;;;4.10;1.50;;;;;;;35.62;23.38;101021.30;103618;280;38662;-72
2023/07/09 06:32:27;;;;;;;2.30;1.40;;;;;;;35.94;22.39;101019.25;103559;281;38254;-73
2023/07/09 06:35:01;;;;;;;2.00;1.50;;;;;;;36.06;22.17;101020.23;103635;281;38253;-72
2023/07/09 06:37:35;;;;;;;1.70;1.40;;;;;;;35.88;22.01;101026.70;103613;281;38266;-72
2023/07/09 06:40:12;;;;;;;2.10;1.40;;;;;;;35.76;22.23;101027.52;103624;281;38764;-71
2023/07/09 06:42:46;;;;;;;2.30;1.50;;;;;;;36.00;22.31;101028.27;103489;281;171163;-71
2023/07/09 06:45:23;;;;;;;1.90;1.30;;;;;;;36.28;21.59;101028.46;103617;281;38401;-72
2023/07/09 06:47:59;;;;;;;3.00;1.50;;;;;;;36.12;21.41;101036.61;103596;281;40007;-72
2023/07/09 06:50:37;;;;;;;3.60;1.40;;;;;;;35.82;21.87;101043.91;103651;281;39599;-73
2023/07/09 06:53:12;;;;;;;1.70;1.60;;;;;;;35.97;21.88;101042.27;103602;281;38280;-73
2023/07/09 06:55:47;;;;;;;1.60;1.50;;;;;;;36.10;21.74;101047.02;103631;281;38275;-70
2023/07/09 06:58:21;;;;;;;1.70;1.40;;;;;;;36.39;21.59;101042.92;103638;281;39546;-70
2023/07/09 07:00:55;;;;;;;1.90;1.70;;;;;;;36.77;21.45;101046.19;103627;281;38291;-74
2023/07/09 07:03:30;;;;;;;2.10;1.40;;;;;;;37.22;21.41;101041.16;103650;281;38542;-72
2023/07/09 07:06:05;;;;;;;2.40;1.40;;;;;;;37.42;21.29;101043.74;103614;281;39848;-70
2023/07/09 07:08:43;;;;;;;2.00;1.40;;;;;;;37.59;21.03;101036.54;103611;281;38231;-70
2023/07/09 07:11:18;;;;;;;1.70;1.20;;;;;;;37.65;20.64;101038.68;103557;281;38873;-72
2023/07/09 07:13:52;;;;;;;2.30;1.20;;;;;;;37.92;20.36;101044.27;103633;281;38386;-71
2023/07/09 07:16:26;;;;;;;2.60;1.50;;;;;;;38.14;19.87;101046.32;103599;281;39435;-69
2023/07/09 07:19:02;;;;;;;2.10;1.40;;;;;;;37.97;19.89;101043.30;103622;281;38806;-71
2023/07/09 07:21:36;;;;;;;2.50;1.40;;;;;;;37.93;20.13;101045.55;103554;281;39847;-72
2023/07/09 07:24:11;;;;;;;1.50;1.20;;;;;;;38.18;20.00;101042.39;103558;281;38790;-71
2023/07/09 07:26:48;;;;;;;3.40;1.70;;;;;;;38.05;19.77;101040.21;103604;281;39442;-70
2023/07/09 07:29:24;;;;;;;3.70;1.40;;;;;;;38.05;19.68;101035.29;103523;281;173764;-72
2023/07/09 07:32:00;;;;;;;2.20;1.20;;;;;;;38.33;19.72;101033.33;103637;281;39645;-72
2023/07/09 07:34:34;;;;;;;1.50;1.30;;;;;;;38.65;19.34;101032.42;103617;281;39979;-71
2023/07/09 07:37:09;;;;;;;1.80;1.40;;;;;;;38.79;18.88;101034.17;103582;281;38251;-70
2023/07/09 07:39:43;;;;;;;3.00;1.70;;;;;;;38.63;18.55;101028.52;103637;281;38412;-71
2023/07/09 07:42:19;;;;;;;1.70;1.40;;;;;;;38.67;19.11;101022.62;103642;281;39392;-72
2023/07/09 07:44:54;;;;;;;2.60;1.20;;;;;;;39.02;18.42;101025.10;103606;281;38824;-69
2023/07/09 07:47:28;;;;;;;1.90;1.50;;;;;;;39.01;17.73;101022.49;103570;281;38632;-70
2023/07/09 07:50:02;;;;;;;2.50;1.40;;;;;;;39.02;18.33;101019.32;103663;269;38292;-72
2023/07/09 07:52:37;;;;;;;1.50;1.30;;;;;;;39.13;18.05;101025.98;103555;281;39865;-72
2023/07/09 07:55:12;;;;;;;2.40;1.40;;;;;;;38.78;17.65;101022.70;103595;281;39729;-72
2023/07/09 07:57:46;;;;;;;1.50;1.10;;;;;;;38.84;18.05;101021.08;103533;281;38544;-71
2023/07/09 08:00:21;;;;;;;1.70;1.40;;;;;;;39.08;17.93;101023.02;102970;281;882668;-70
2023/07/09 08:02:55;;;;;;;1.60;1.20;;;;;;;39.34;18.02;101025.02;103502;270;40189;-70
2023/07/09 08:05:30;;;;;;;1.80;1.20;;;;;;;39.56;17.54;101018.60;103551;281;38739;-69
2023/07/09 08:08:04;;;;;;;1.60;1.10;;;;;;;39.42;17.52;101018.55;103500;281;173714;-69
2023/07/09 08:10:39;;;;;;;1.30;1.10;;;;;;;39.54;17.38;101020.95;103556;281;39590;-69
2023/07/09 08:13:13;;;;;;;1.30;1.20;;;;;;;39.61;17.12;101024.55;103569;281;38289;-68
2023/07/09 08:15:48;;;;;;;2.00;1.20;;;;;;;39.86;17.76;101022.35;103518;281;38381;-69
2023/07/09 08:18:22;;;;;;;1.40;1.30;;;;;;;40.40;17.01;101015.52;103551;273;38422;-69
2023/07/09 08:20:56;;;;;;;1.50;1.00;;;;;;;40.62;16.52;101017.20;103641;269;38260;-69
2023/07/09 08:23:30;;;;;;;1.40;1.30;;;;;;;40.55;15.70;101023.50;103411;282;39132;-75
2023/07/09 08:26:05;;;;;;;3.40;1.00;;;;;;;40.34;15.43;101026.52;103438;282;38868;-74
2023/07/09 08:28:42;;;;;;;1.40;1.10;;;;;;;40.35;15.48;101019.75;103455;282;39221;-74
2023/07/09 08:31:16;;;;;;;1.80;1.40;;;;;;;40.31;15.48;101030.52;103463;282;39658;-75
2023/07/09 08:33:50;;;;;;;3.20;1.00;;;;;;;40.30;15.51;101026.00;103488;282;38279;-75
2023/07/09 08:36:24;;;;;;;1.70;1.00;;;;;;;40.24;15.46;101029.54;103445;282;38349;-74
2023/07/09 08:38:59;;;;;;;2.00;1.10;;;;;;;40.30;15.26;101026.60;103535;282;38304;-75
2023/07/09 08:41:46;;;;;;;2.30;1.10;;;;;;;40.61;15.52;101019.42;103483;282;38315;-75
2023/07/09 08:44:34;;;;;;;2.30;1.00;;;;;;;40.51;15.52;101018.02;103449;282;39431;-76
2023/07/09 08:47:12;;;;;;;1.30;0.90;;;;;;;40.45;15.37;101013.59;103434;271;38243;-76
2023/07/09 08:49:49;;;;;;;1.10;1.00;;;;;;;40.54;15.55;101013.61;103479;282;38304;-73
2023/07/09 08:52:29;;;;;;;3.30;1.20;;;;;;;40.59;14.88;101008.73;103511;282;38305;-75
2023/07/09 08:55:07;;;;;;;1.70;1.30;;;;;;;40.59;15.05;101007.14;103492;282;39444;-76
2023/07/09 08:57:45;;;;;;;1.10;1.00;;;;;;;40.48;15.26;101008.26;103528;282;38276;-76
2023/07/09 09:00:26;;;;;;;1.70;1.00;;;;;;;40.59;15.64;101010.27;103489;282;38384;-76
2023/07/09 09:03:03;;;;;;;1.40;1.00;;;;;;;40.59;15.11;101011.31;103493;282;38256;-74
2023/07/09 09:05:38;;;;;;;2.20;1.00;;;;;;;40.37;15.03;101011.36;103510;282;39456;-75
2023/07/09 09:08:21;;;;;;;1.30;0.90;;;;;;;40.23;14.43;101015.30;103551;271;38774;-75
2023/07/09 09:11:07;;;;;;;1.60;1.00;;;;;;;39.97;14.47;101018.69;103522;282;38995;-75
2023/07/09 09:13:46;;;;;;;2.20;1.00;;;;;;;39.64;14.73;101020.33;103430;282;39808;-75
2023/07/09 09:16:27;;;;;;;1.10;1.00;;;;;;;39.48;14.99;101011.59;103360;282;173499;-75
2023/07/09 09:19:03;;;;;;;1.30;1.00;;;;;;;39.08;15.50;101005.24;103421;282;38908;-74
2023/07/09 09:21:39;;;;;;;1.10;0.90;;;;;;;38.73;15.36;101003.55;103454;281;38244;-74
2023/07/09 09:24:19;;;;;;;2.80;1.00;;;;;;;38.10;15.70;101005.34;103622;281;39425;-75
2023/07/09 09:26:56;;;;;;;2.00;1.20;;;;;;;37.38;16.51;101009.35;103584;281;38499;-74
2023/07/09 09:29:32;;;;;;;2.40;1.30;;;;;;;36.85;16.76;101010.45;103711;281;38255;-76
2023/07/09 09:32:22;;;;;;;2.10;1.10;;;;;;;36.28;17.44;101006.80;103543;281;38509;-69
2023/07/09 09:34:58;;;;;;;1.20;1.10;;;;;;;35.91;18.14;101008.81;103628;281;38292;-72
2023/07/09 09:37:34;;;;;;;1.90;1.30;;;;;;;35.63;18.71;101008.98;103576;281;38694;-72
2023/07/09 09:40:13;;;;;;;2.80;1.20;;;;;;;35.21;18.64;101016.94;103597;281;38370;-71
2023/07/09 09:42:48;;;;;;;1.40;1.20;;;;;;;34.65;19.48;101008.13;103544;281;38277;-73
2023/07/09 09:45:26;;;;;;;1.40;1.10;;;;;;;34.30;20.17;100999.89;103592;281;38681;-72
2023/07/09 09:48:07;;;;;;;2.70;1.00;;;;;;;34.26;20.71;100995.31;103602;281;38827;-72
2023/07/09 09:50:43;;;;;;;3.00;1.10;;;;;;;34.13;19.83;101000.23;103660;281;38263;-72
2023/07/09 09:53:23;;;;;;;1.10;0.80;;;;;;;33.74;19.57;101004.80;103616;281;38492;-72
2023/07/09 09:56:00;;;;;;;1.20;0.90;;;;;;;33.31;19.89;101005.89;103645;281;38244;-71
2023/07/09 09:58:40;;;;;;;1.30;0.90;;;;;;;33.02;20.47;101002.58;103619;281;38742;-70
2023/07/09 10:01:18;;;;;;;0.70;0.70;;;;;;;32.97;20.42;101004.89;103560;280;39775;-70
2023/07/09 10:03:58;;;;;;;2.00;0.80;;;;;;;32.78;20.64;101004.53;103647;281;39471;-71
2023/07/09 10:06:42;;;;;;;1.50;0.80;;;;;;;32.72;20.70;101010.11;103571;281;39435;-71
2023/07/09 10:09:25;;;;;;;1.40;1.00;;;;;;;32.46;20.58;101006.63;103616;281;38233;-71
2023/07/09 10:12:05;;;;;;;1.30;0.80;;;;;;;32.30;21.37;101003.81;103604;281;38270;-72
2023/07/09 10:14:51;;;;;;;1.80;0.90;;;;;;;32.14;21.00;101000.36;103621;281;38258;-70
2023/07/09 10:17:33;;;;;;;2.40;1.00;;;;;;;32.07;21.66;100999.75;103487;281;173889;-70
2023/07/09 10:20:22;;;;;;;1.30;0.80;;;;;;;32.10;21.83;100998.42;103619;281;39386;-70
2023/07/09 10:22:59;;;;;;;1.00;0.80;;;;;;;32.03;21.31;101001.23;103584;281;38243;-70
2023/07/09 10:25:54;;;;;;;2.20;1.00;;;;;;;32.08;21.55;100995.42;103494;281;174270;-72
2023/07/09 10:29:04;;;;;;;1.40;0.90;;;;;;;32.11;21.63;100990.89;103621;281;38268;-72
2023/07/09 10:31:48;;;;;;;1.40;0.80;;;;;;;32.21;21.58;100991.42;103552;281;38287;-73
2023/07/09 10:34:32;;;;;;;1.20;1.00;;;;;;;32.23;21.13;100994.50;103631;281;38389;-75
2023/07/09 10:37:35;;;;;;;1.80;0.90;;;;;;;32.04;21.62;100991.27;103669;281;38258;-74
2023/07/09 10:40:13;;;;;;;1.10;0.70;;;;;;;31.83;20.96;100985.43;103622;281;38932;-73
2023/07/09 10:42:55;;;;;;;1.70;0.70;;;;;;;31.64;21.19;100987.82;103714;281;38670;-73
2023/07/09 10:45:33;;;;;;;1.80;0.70;;;;;;;31.49;21.39;100986.61;103693;281;38591;-76
2023/07/09 10:48:11;;;;;;;0.90;0.80;;;;;;;31.26;21.96;100983.85;103655;281;39400;-75
2023/07/09 10:50:48;;;;;;;1.00;0.80;;;;;;;31.12;22.06;100981.61;103697;281;38232;-73
2023/07/09 10:53:35;;;;;;;1.70;0.80;;;;;;;31.04;22.18;100978.45;103630;281;39206;-73
2023/07/09 10:56:15;;;;;;;1.50;0.80;;;;;;;30.96;22.38;100971.60;103650;281;38284;-75
2023/07/09 10:58:57;;;;;;;1.40;0.80;;;;;;;30.93;22.52;100967.79;103694;281;38728;-74
2023/07/09 11:01:34;;;;;;;1.30;0.80;;;;;;;30.84;22.40;100969.31;103522;281;40271;-76
2023/07/09 11:04:12;;;;;;;2.00;0.80;;;;;;;30.72;22.42;100973.10;103567;281;38865;-75
2023/07/09 11:06:51;;;;;;;3.20;0.80;;;;;;;30.56;22.32;100978.31;103604;281;38250;-75
2023/07/09 11:09:30;;;;;;;0.90;0.70;;;;;;;30.49;22.85;100979.40;103495;281;38239;-74
2023/07/09 11:12:09;;;;;;;0.70;0.60;;;;;;;30.54;22.76;100974.23;103627;281;38280;-75
2023/07/09 11:14:48;;;;;;;1.60;0.80;;;;;;;30.63;23.42;100980.24;103692;281;39408;-74
2023/07/09 11:17:24;;;;;;;1.90;0.70;;;;;;;30.52;22.92;100979.10;103631;281;38404;-74
2023/07/09 11:20:02;;;;;;;0.80;0.80;;;;;;;30.59;24.09;100973.13;103678;281;38388;-77
2023/07/09 11:22:42;;;;;;;0.90;0.70;;;;;;;30.80;23.90;100979.60;103631;281;38453;-75
2023/07/09 11:25:27;;;;;;;3.60;0.90;;;;;;;30.82;22.82;100975.20;103625;281;38476;-73
2023/07/09 11:28:09;;;;;;;2.90;0.90;;;;;;;30.66;22.43;100977.01;103510;281;38277;-72
2023/07/09 11:30:54;;;;;;;1.90;0.70;;;;;;;30.42;22.20;100974.88;103671;281;38257;-73
2023/07/09 11:33:50;;;;;;;1.60;0.60;;;;;;;30.13;22.63;100974.88;103604;281;38232;-73
2023/07/09 11:36:30;;;;;;;0.90;0.80;;;;;;;30.00;22.75;100974.23;103582;280;39458;-74
2023/07/09 11:39:19;;;;;;;1.60;0.80;;;;;;;30.06;22.95;100969.98;103668;281;38752;-73
2023/07/09 11:41:56;;;;;;;1.20;0.70;;;;;;;30.11;22.94;100966.23;103548;281;39467;-72
2023/07/09 11:44:31;;;;;;;;;;;;;;;30.18;23.06;100964.90;103658;281;39478;-72
2023/07/09 11:47:19;;;;;;;0.70;0.70;;;;;;;30.19;23.32;100967.73;102934;279;891927;-73
2023/07/09 11:49:59;;;;;;;1.90;0.80;;;;;;;30.28;23.38;100966.10;103603;281;38308;-74
2023/07/09 11:52:39;;;;;;;1.20;0.60;;;;;;;30.36;23.60;100970.88;103626;281;38439;-72
2023/07/09 11:55:28;;;;;;;1.30;0.80;;;;;;;30.43;23.15;100973.98;103570;281;38505;-73
2023/07/09 11:58:09;;;;;;;2.30;0.80;;;;;;;30.32;22.63;100972.50;103575;281;38223;-73
2023/07/09 12:00:48;;;;;;;1.00;0.80;;;;;;;30.16;22.30;100965.52;103611;281;38508;-74
2023/07/09 12:03:27;;;;;;;1.50;0.70;;;;;;;30.00;22.51;100955.45;103556;281;40160;-76
2023/07/09 12:06:15;;;;;;;1.00;0.90;;;;;;;29.97;22.46;100956.09;103620;281;38231;-74
2023/07/09 12:08:49;;;;;;;1.50;0.90;;;;;;;29.92;22.54;100955.77;103563;281;38386;-73